createdAt,value
2018-10-06T00:00:32.264Z,12.90
2018-10-06T00:04:40.513Z,12.90
2018-10-06T00:08:48.786Z,12.90
2018-10-06T00:12:57.080Z,12.90
2018-10-06T00:17:05.453Z,12.90
2018-10-06T00:21:13.721Z,12.90
2018-10-06T00:25:21.997Z,12.90
2018-10-06T00:29:30.410Z,12.80
2018-10-06T00:33:38.714Z,12.80
2018-10-06T00:37:46.955Z,12.70
2018-10-06T00:41:55.196Z,12.60
2018-10-06T00:50:11.581Z,12.60
2018-10-06T00:54:19.891Z,12.50
2018-10-06T00:58:28.133Z,12.50
2018-10-06T01:02:36.566Z,12.40
2018-10-06T01:06:44.822Z,12.40
2018-10-06T01:10:53.138Z,12.40
2018-10-06T01:15:16.460Z,12.30
2018-10-06T01:19:24.734Z,12.20
2018-10-06T01:23:33.112Z,12.20
2018-10-06T01:27:41.322Z,12.10
2018-10-06T01:31:49.704Z,12.10
2018-10-06T01:35:57.956Z,12.10
2018-10-06T01:40:06.274Z,12.10
2018-10-06T01:44:14.535Z,12.00
2018-10-06T01:48:22.794Z,12.00
2018-10-06T01:52:31.411Z,12.00
2018-10-06T01:56:39.676Z,11.90
2018-10-06T02:00:48.030Z,11.90
2018-10-06T02:04:56.301Z,11.90
2018-10-06T02:09:05.601Z,11.90
2018-10-06T02:13:13.851Z,11.90
2018-10-06T02:17:22.120Z,11.80
2018-10-06T02:21:30.617Z,11.70
2018-10-06T02:25:38.892Z,11.70
2018-10-06T02:29:47.153Z,11.70
2018-10-06T02:33:55.443Z,11.60
2018-10-06T02:38:03.909Z,11.50
2018-10-06T02:42:12.204Z,11.50
2018-10-06T02:46:20.561Z,11.50
2018-10-06T02:50:30.056Z,11.50
2018-10-06T02:54:38.332Z,11.50
2018-10-06T02:58:46.719Z,11.50
2018-10-06T03:02:55.304Z,11.40
2018-10-06T03:07:03.570Z,11.50
2018-10-06T03:11:11.828Z,11.40
2018-10-06T03:15:20.149Z,11.40
2018-10-06T03:19:28.519Z,11.40
2018-10-06T03:23:36.809Z,11.40
2018-10-06T03:27:45.204Z,11.40
2018-10-06T03:31:53.640Z,11.40
2018-10-06T03:36:01.917Z,11.30
2018-10-06T03:40:10.146Z,11.30
2018-10-06T03:44:18.408Z,11.30
2018-10-06T03:48:27.125Z,11.30
2018-10-06T03:52:35.357Z,11.40
2018-10-06T03:56:44.392Z,11.50
2018-10-06T04:00:52.708Z,11.60
2018-10-06T04:05:01.102Z,11.70
2018-10-06T04:09:09.472Z,11.60
2018-10-06T04:13:17.711Z,11.60
2018-10-06T04:17:26.224Z,11.60
2018-10-06T04:21:41.560Z,11.60
2018-10-06T04:25:49.793Z,11.60
2018-10-06T04:29:58.198Z,11.60
2018-10-06T04:34:06.440Z,11.60
2018-10-06T04:38:14.987Z,11.60
2018-10-06T04:42:23.387Z,11.60
2018-10-06T04:46:31.723Z,11.60
2018-10-06T04:50:40.040Z,11.60
2018-10-06T04:54:48.293Z,11.60
2018-10-06T04:58:57.048Z,11.60
2018-10-06T05:03:05.301Z,11.60
2018-10-06T05:07:13.734Z,11.50
2018-10-06T05:11:21.978Z,11.50
2018-10-06T05:15:30.359Z,11.40
2018-10-06T05:19:38.638Z,11.50
2018-10-06T05:23:46.919Z,11.40
2018-10-06T05:27:55.564Z,11.30
2018-10-06T05:32:03.829Z,11.40
2018-10-06T05:36:12.099Z,11.50
2018-10-06T05:40:20.373Z,11.60
2018-10-06T05:44:28.866Z,11.50
2018-10-06T05:48:37.132Z,11.40
2018-10-06T05:52:45.511Z,11.50
2018-10-06T05:56:53.988Z,11.50
2018-10-06T06:01:02.312Z,11.50
2018-10-06T06:05:14.421Z,11.60
2018-10-06T06:09:23.215Z,11.60
2018-10-06T06:13:31.516Z,11.70
2018-10-06T06:17:40.186Z,11.70
2018-10-06T06:21:48.454Z,12.00
2018-10-06T06:25:57.238Z,12.00
2018-10-06T06:30:05.545Z,11.90
2018-10-06T06:34:14.037Z,12.10
2018-10-06T06:38:22.407Z,12.00
2018-10-06T06:42:30.720Z,12.20
2018-10-06T06:46:38.942Z,12.20
2018-10-06T06:50:47.330Z,12.30
2018-10-06T06:54:56.070Z,12.20
2018-10-06T06:59:04.324Z,12.50
2018-10-06T07:03:12.584Z,12.60
2018-10-06T07:07:20.784Z,12.70
2018-10-06T07:11:29.179Z,12.80
2018-10-06T07:15:37.472Z,12.80
2018-10-06T07:19:45.938Z,13.10
2018-10-06T07:23:54.738Z,13.10
2018-10-06T07:28:02.995Z,13.30
2018-10-06T07:32:11.253Z,13.40
2018-10-06T07:36:19.538Z,13.40
2018-10-06T07:40:28.080Z,13.70
2018-10-06T07:44:36.368Z,13.70
2018-10-06T07:48:44.745Z,13.80
2018-10-06T07:52:53.446Z,14.10
2018-10-06T07:57:01.716Z,14.20
2018-10-06T08:01:10.013Z,14.30
2018-10-06T08:05:18.305Z,14.40
2018-10-06T08:09:26.843Z,14.40
2018-10-06T08:13:35.093Z,14.70
2018-10-06T08:17:43.420Z,14.70
2018-10-06T08:21:51.683Z,14.80
2018-10-06T08:26:00.021Z,14.90
2018-10-06T08:30:08.316Z,15.00
2018-10-06T08:34:16.604Z,15.30
2018-10-06T08:38:25.188Z,15.30
2018-10-06T08:42:33.508Z,15.50
2018-10-06T08:46:41.729Z,15.50
2018-10-06T08:50:49.989Z,15.60
2018-10-06T08:54:58.284Z,15.80
2018-10-06T08:59:06.845Z,16.00
2018-10-06T09:03:15.122Z,16.10
2018-10-06T09:07:23.656Z,16.30
2018-10-06T09:11:31.935Z,16.30
2018-10-06T09:15:40.191Z,16.30
2018-10-06T09:19:48.819Z,16.50
2018-10-06T09:23:57.110Z,16.70
2018-10-06T09:28:05.395Z,16.80
2018-10-06T09:32:13.690Z,17.10
2018-10-06T09:36:22.599Z,17.30
2018-10-06T09:40:30.861Z,17.30
2018-10-06T09:44:39.206Z,17.40
2018-10-06T09:48:48.096Z,17.70
2018-10-06T09:52:56.420Z,18.00
2018-10-06T09:57:04.692Z,18.10
2018-10-06T10:01:18.277Z,18.40
2018-10-06T10:05:32.153Z,18.50
2018-10-06T10:09:40.221Z,18.60
2018-10-06T10:13:48.749Z,18.80
2018-10-06T10:17:57.098Z,19.20
2018-10-06T10:22:05.478Z,19.50
2018-10-06T10:26:13.737Z,19.50
2018-10-06T10:30:22.209Z,19.60
2018-10-06T10:34:30.551Z,19.90
2018-10-06T10:38:38.841Z,20.00
2018-10-06T10:42:47.498Z,20.10
2018-10-06T10:46:55.862Z,20.10
2018-10-06T10:51:04.129Z,20.20
2018-10-06T10:55:12.414Z,20.40
2018-10-06T10:59:21.335Z,20.70
2018-10-06T11:03:29.580Z,20.70
2018-10-06T11:07:38.003Z,20.70
2018-10-06T11:11:47.268Z,21.10
2018-10-06T11:15:55.615Z,21.20
2018-10-06T11:20:03.923Z,21.40
2018-10-06T11:24:12.548Z,21.40
2018-10-06T11:28:21.297Z,21.50
2018-10-06T11:32:29.564Z,21.60
2018-10-06T11:36:38.249Z,21.50
2018-10-06T11:40:47.003Z,21.70
2018-10-06T11:44:55.361Z,21.80
2018-10-06T11:49:03.647Z,21.90
2018-10-06T11:53:11.949Z,21.90
2018-10-06T11:57:20.583Z,22.00
2018-10-06T12:01:28.831Z,22.10
2018-10-06T12:05:37.225Z,22.20
2018-10-06T12:09:45.474Z,22.20
2018-10-06T12:13:53.900Z,22.50
2018-10-06T12:18:02.123Z,22.40
2018-10-06T12:22:10.454Z,22.40
2018-10-06T12:26:19.190Z,22.60
2018-10-06T12:30:27.429Z,22.60
2018-10-06T12:34:35.741Z,22.80
2018-10-06T12:38:44.025Z,22.80
2018-10-06T12:42:52.570Z,22.70
2018-10-06T12:47:00.865Z,22.70
2018-10-06T12:51:09.320Z,23.10
2018-10-06T12:55:17.948Z,22.90
2018-10-06T12:59:26.229Z,23.20
2018-10-06T13:03:34.837Z,23.00
2018-10-06T13:07:43.146Z,23.00
2018-10-06T13:11:51.925Z,23.10
2018-10-06T13:16:00.149Z,23.20
2018-10-06T13:20:08.597Z,23.20
2018-10-06T13:24:17.068Z,23.30
2018-10-06T13:28:25.348Z,23.00
2018-10-06T13:32:33.644Z,23.00
2018-10-06T13:36:41.909Z,23.00
2018-10-06T13:40:50.715Z,22.90
2018-10-06T13:44:58.960Z,22.90
2018-10-06T13:49:07.581Z,22.80
2018-10-06T13:53:16.411Z,23.10
2018-10-06T13:57:24.903Z,23.20
2018-10-06T14:01:33.169Z,23.30
2018-10-06T14:05:41.383Z,23.30
2018-10-06T14:09:49.837Z,23.30
2018-10-06T14:13:58.104Z,23.50
2018-10-06T14:18:06.436Z,23.30
2018-10-06T14:22:14.914Z,23.40
2018-10-06T14:26:23.448Z,23.40
2018-10-06T14:30:31.718Z,23.40
2018-10-06T14:34:40.162Z,23.40
2018-10-06T14:38:48.848Z,23.20
2018-10-06T14:42:57.188Z,23.20
2018-10-06T14:47:05.530Z,23.10
2018-10-06T14:51:13.737Z,23.10
2018-10-06T14:55:22.060Z,23.10
2018-10-06T14:59:30.310Z,23.10
2018-10-06T15:03:38.625Z,22.90
2018-10-06T15:07:46.857Z,23.00
2018-10-06T15:11:55.645Z,23.20
2018-10-06T15:16:04.023Z,23.10
2018-10-06T15:20:12.384Z,23.10
2018-10-06T15:24:21.045Z,23.20
2018-10-06T15:28:29.325Z,23.10
2018-10-06T15:32:37.564Z,23.10
2018-10-06T15:36:45.945Z,23.20
2018-10-06T15:40:54.534Z,23.00
2018-10-06T15:45:02.987Z,23.10
2018-10-06T15:49:11.491Z,22.70
2018-10-06T15:53:20.155Z,22.60
2018-10-06T15:57:28.492Z,22.70
2018-10-06T16:01:36.772Z,22.90
2018-10-06T16:05:45.036Z,22.60
2018-10-06T16:09:53.611Z,22.60
2018-10-06T16:14:01.883Z,22.40
2018-10-06T16:18:10.299Z,22.10
2018-10-06T16:22:18.590Z,21.90
2018-10-06T16:26:26.899Z,21.70
2018-10-06T16:30:35.158Z,21.40
2018-10-06T16:34:43.459Z,21.30
2018-10-06T16:38:51.812Z,21.10
2018-10-06T16:43:00.449Z,20.90
2018-10-06T16:47:08.771Z,20.80
2018-10-06T16:51:17.080Z,20.60
2018-10-06T16:55:25.627Z,20.40
2018-10-06T16:59:34.015Z,20.30
2018-10-06T17:07:51.549Z,20.00
2018-10-06T17:11:59.853Z,19.90
2018-10-06T17:16:08.254Z,19.70
2018-10-06T17:20:16.547Z,19.50
2018-10-06T17:24:25.108Z,19.50
2018-10-06T17:28:33.387Z,19.40
2018-10-06T17:32:41.681Z,19.20
2018-10-06T17:36:50.346Z,19.10
2018-10-06T17:40:58.708Z,18.90
2018-10-06T17:45:07.136Z,19.00
2018-10-06T17:49:15.396Z,18.90
2018-10-06T17:53:23.938Z,18.80
2018-10-06T17:57:32.204Z,18.60
2018-10-06T18:01:41.306Z,18.40
2018-10-06T18:05:50.041Z,18.30
2018-10-06T18:09:58.404Z,18.30
2018-10-06T18:14:06.590Z,18.20
2018-10-06T18:18:14.925Z,18.20
2018-10-06T18:22:23.923Z,18.20
2018-10-06T18:26:32.168Z,18.10
2018-10-06T18:30:40.667Z,18.10
2018-10-06T18:34:49.025Z,18.00
2018-10-06T18:38:57.525Z,18.00
2018-10-06T18:43:05.795Z,18.10
2018-10-06T18:47:14.075Z,18.00
2018-10-06T18:51:22.813Z,18.00
2018-10-06T18:55:31.097Z,17.80
2018-10-06T18:59:39.408Z,17.80
2018-10-06T19:03:47.710Z,17.70
2018-10-06T19:07:56.121Z,17.70
2018-10-06T19:12:04.363Z,17.60
2018-10-06T19:16:12.764Z,17.60
2018-10-06T19:20:21.667Z,17.60
2018-10-06T19:24:29.916Z,17.60
2018-10-06T19:28:38.240Z,17.60
2018-10-06T19:32:46.536Z,17.50
2018-10-06T19:36:54.912Z,17.60
2018-10-06T19:41:03.140Z,17.50
2018-10-06T19:45:11.617Z,17.50
2018-10-06T19:49:20.334Z,17.50
2018-10-06T19:53:28.727Z,17.40
2018-10-06T19:57:37.015Z,17.30
2018-10-06T20:01:45.272Z,17.20
2018-10-06T20:05:54.310Z,17.20
2018-10-06T20:14:10.856Z,17.10
2018-10-06T20:18:19.433Z,17.10
2018-10-06T20:22:27.740Z,17.10
2018-10-06T20:26:36.043Z,17.10
2018-10-06T20:30:44.317Z,17.10
2018-10-06T20:34:53.285Z,17.10
2018-10-06T20:39:01.559Z,17.20
2018-10-06T20:43:09.907Z,17.20
2018-10-06T20:47:18.230Z,17.30
2018-10-06T20:51:26.613Z,17.30
2018-10-06T20:55:34.848Z,17.30
2018-10-06T20:59:43.140Z,17.30
2018-10-06T21:03:51.455Z,17.40
2018-10-06T21:07:59.745Z,17.50
2018-10-06T21:12:08.533Z,17.40
2018-10-06T21:16:16.773Z,17.30
2018-10-06T21:20:25.120Z,17.40
2018-10-06T21:24:33.736Z,17.20
2018-10-06T21:28:42.044Z,17.30
2018-10-06T21:32:50.346Z,17.30
2018-10-06T21:36:58.673Z,17.40
2018-10-06T21:41:07.076Z,17.40
2018-10-06T21:45:15.354Z,17.10
2018-10-06T21:49:23.711Z,17.10
2018-10-06T21:53:32.301Z,17.00
2018-10-06T21:57:40.572Z,16.90
2018-10-06T22:01:48.824Z,16.80
2018-10-06T22:05:57.110Z,16.80
2018-10-06T22:10:05.841Z,16.80
2018-10-06T22:14:14.131Z,16.70
2018-10-06T22:18:22.491Z,16.60
2018-10-06T22:22:31.141Z,16.70
2018-10-06T22:26:39.659Z,16.60
2018-10-06T22:30:47.933Z,16.50
2018-10-06T22:34:56.364Z,16.50
2018-10-06T22:39:06.428Z,16.50
2018-10-06T22:43:14.675Z,16.40
2018-10-06T22:47:23.096Z,16.60
2018-10-06T22:51:31.448Z,16.50
2018-10-06T22:55:39.759Z,16.60
2018-10-06T22:59:48.029Z,16.60
2018-10-06T23:03:56.307Z,16.40
2018-10-06T23:08:04.823Z,16.20
2018-10-06T23:12:13.104Z,16.30
2018-10-06T23:16:21.436Z,16.40
2018-10-06T23:20:29.838Z,16.40
2018-10-06T23:24:38.192Z,16.40
2018-10-06T23:28:46.445Z,16.30
2018-10-06T23:32:54.769Z,16.40
2018-10-06T23:37:03.448Z,16.30
2018-10-06T23:41:11.737Z,16.30
2018-10-06T23:45:19.991Z,16.00
2018-10-06T23:49:28.285Z,16.00
2018-10-06T23:53:36.777Z,16.00
2018-10-06T23:57:45.028Z,15.90
